sensor_id;sensor_type;location;lat;lon;timestamp;pressure;altitude;pressure_sealevel;temperature;humidity
32759;BME280;19125;52.360;9.974;2024-03-08T00:00:02;87604.34;;;-145.17;57.18
32759;BME280;19125;52.360;9.974;2024-03-08T00:02:36;87594.44;;;-145.17;56.82
32759;BME280;19125;52.360;9.974;2024-03-08T00:05:03;87592.44;;;-145.17;57.12
32759;BME280;19125;52.360;9.974;2024-03-08T00:07:28;87604.34;;;-145.17;56.96
32759;BME280;19125;52.360;9.974;2024-03-08T00:09:54;87596.41;;;-145.17;57.22
32759;BME280;19125;52.360;9.974;2024-03-08T00:12:19;87612.28;;;-145.17;56.76
32759;BME280;19125;52.360;9.974;2024-03-08T00:14:45;87584.50;;;-145.17;57.38
32759;BME280;19125;52.360;9.974;2024-03-08T00:17:11;87614.28;;;-145.17;57.39
32759;BME280;19125;52.360;9.974;2024-03-08T00:19:36;87588.47;;;-145.17;57.52
32759;BME280;19125;52.360;9.974;2024-03-08T00:22:02;87604.34;;;-145.17;57.25
32759;BME280;19125;52.360;9.974;2024-03-08T00:24:27;87626.19;;;-145.17;57.45
32759;BME280;19125;52.360;9.974;2024-03-08T00:26:54;87648.03;;;-145.17;57.66
32759;BME280;19125;52.360;9.974;2024-03-08T00:29:19;87596.41;;;-145.17;57.35
32759;BME280;19125;52.360;9.974;2024-03-08T00:31:45;87594.44;;;-145.17;57.62
32759;BME280;19125;52.360;9.974;2024-03-08T00:34:10;87612.28;;;-145.17;57.24
32759;BME280;19125;52.360;9.974;2024-03-08T00:36:37;87663.91;;;-145.17;57.32
32759;BME280;19125;52.360;9.974;2024-03-08T00:39:03;87606.34;;;-145.17;57.60
32759;BME280;19125;52.360;9.974;2024-03-08T00:41:31;87612.28;;;-145.17;57.47
32759;BME280;19125;52.360;9.974;2024-03-08T00:43:56;87650.00;;;-145.17;57.66
32759;BME280;19125;52.360;9.974;2024-03-08T00:46:22;87634.13;;;-145.17;57.72
32759;BME280;19125;52.360;9.974;2024-03-08T00:48:48;87632.16;;;-145.17;57.75
32759;BME280;19125;52.360;9.974;2024-03-08T00:51:13;87667.88;;;-145.17;57.71
32759;BME280;19125;52.360;9.974;2024-03-08T00:53:40;87655.97;;;-145.17;57.71
32759;BME280;19125;52.360;9.974;2024-03-08T00:56:07;87626.19;;;-145.17;58.13
32759;BME280;19125;52.360;9.974;2024-03-08T00:58:36;87628.19;;;-145.17;57.86
32759;BME280;19125;52.360;9.974;2024-03-08T01:01:01;87628.19;;;-145.17;57.93
32759;BME280;19125;52.360;9.974;2024-03-08T01:03:27;87650.00;;;-145.17;57.61
32759;BME280;19125;52.360;9.974;2024-03-08T01:05:52;87636.13;;;-145.17;57.59
32759;BME280;19125;52.360;9.974;2024-03-08T01:08:18;87632.16;;;-145.17;57.80
32759;BME280;19125;52.360;9.974;2024-03-08T01:10:43;87747.28;;;-145.17;57.78
32759;BME280;19125;52.360;9.974;2024-03-08T01:13:08;87657.94;;;-145.17;58.15
32759;BME280;19125;52.360;9.974;2024-03-08T01:15:34;87659.94;;;-145.17;58.14
32759;BME280;19125;52.360;9.974;2024-03-08T01:18:00;87669.88;;;-145.17;58.11
32759;BME280;19125;52.360;9.974;2024-03-08T01:20:26;87652.00;;;-145.17;58.36
32759;BME280;19125;52.360;9.974;2024-03-08T01:22:53;87675.81;;;-145.17;58.06
32759;BME280;19125;52.360;9.974;2024-03-08T01:25:18;87725.44;;;-145.17;58.19
32759;BME280;19125;52.360;9.974;2024-03-08T01:27:43;87675.81;;;-145.17;58.41
32759;BME280;19125;52.360;9.974;2024-03-08T01:30:09;87727.44;;;-145.17;57.94
32759;BME280;19125;52.360;9.974;2024-03-08T01:32:34;87655.97;;;-145.17;58.16
32759;BME280;19125;52.360;9.974;2024-03-08T01:35:00;87707.59;;;-145.17;58.36
32759;BME280;19125;52.360;9.974;2024-03-08T01:37:26;87687.72;;;-145.17;58.30
32759;BME280;19125;52.360;9.974;2024-03-08T01:39:51;87687.72;;;-145.17;58.45
32759;BME280;19125;52.360;9.974;2024-03-08T01:42:17;87719.50;;;-145.17;58.31
32759;BME280;19125;52.360;9.974;2024-03-08T01:44:43;87721.47;;;-145.17;58.50
32759;BME280;19125;52.360;9.974;2024-03-08T01:47:09;87717.50;;;-145.17;58.77
32759;BME280;19125;52.360;9.974;2024-03-08T01:49:36;87751.25;;;-145.17;58.52
32759;BME280;19125;52.360;9.974;2024-03-08T01:52:02;87743.31;;;-145.17;58.75
32759;BME280;19125;52.360;9.974;2024-03-08T01:54:28;87773.09;;;-145.17;58.90
32759;BME280;19125;52.360;9.974;2024-03-08T01:56:54;87757.22;;;-145.17;59.21
32759;BME280;19125;52.360;9.974;2024-03-08T01:59:19;87769.13;;;-145.17;59.11
32759;BME280;19125;52.360;9.974;2024-03-08T02:01:45;87783.00;;;-145.17;59.50
32759;BME280;19125;52.360;9.974;2024-03-08T02:04:10;87826.69;;;-145.17;59.19
32759;BME280;19125;52.360;9.974;2024-03-08T02:06:36;87850.50;;;-145.17;59.58
32759;BME280;19125;52.360;9.974;2024-03-08T02:09:03;87846.53;;;-145.17;59.82
32759;BME280;19125;52.360;9.974;2024-03-08T02:11:31;87886.25;;;-145.17;59.86
32759;BME280;19125;52.360;9.974;2024-03-08T02:13:57;87882.28;;;-145.17;59.93
32759;BME280;19125;52.360;9.974;2024-03-08T02:16:23;87910.06;;;-145.17;60.26
32759;BME280;19125;52.360;9.974;2024-03-08T02:18:48;87925.94;;;-145.17;60.54
32759;BME280;19125;52.360;9.974;2024-03-08T02:21:16;87941.84;;;-145.17;60.78
32759;BME280;19125;52.360;9.974;2024-03-08T02:23:46;87997.41;;;-145.17;61.04
32759;BME280;19125;52.360;9.974;2024-03-08T02:26:11;87971.63;;;-145.17;61.02
32759;BME280;19125;52.360;9.974;2024-03-08T02:28:37;88029.19;;;-145.17;60.88
32759;BME280;19125;52.360;9.974;2024-03-08T02:31:02;88019.25;;;-145.17;61.05
32759;BME280;19125;52.360;9.974;2024-03-08T02:33:33;88053.00;;;-145.17;60.82
32759;BME280;19125;52.360;9.974;2024-03-08T02:35:58;88039.13;;;-145.17;61.23
32759;BME280;19125;52.360;9.974;2024-03-08T02:38:24;88060.94;;;-145.17;61.12
32759;BME280;19125;52.360;9.974;2024-03-08T02:40:50;88094.69;;;-145.17;61.17
32759;BME280;19125;52.360;9.974;2024-03-08T02:43:18;88080.81;;;-145.17;61.23
32759;BME280;19125;52.360;9.974;2024-03-08T02:45:44;88118.53;;;-145.17;61.17
32759;BME280;19125;52.360;9.974;2024-03-08T02:48:11;88152.28;;;-145.17;61.33
32759;BME280;19125;52.360;9.974;2024-03-08T02:50:37;88136.38;;;-145.17;61.58
32759;BME280;19125;52.360;9.974;2024-03-08T02:53:03;88116.53;;;-145.17;61.48
32759;BME280;19125;52.360;9.974;2024-03-08T02:55:29;88136.38;;;-145.17;61.45
32759;BME280;19125;52.360;9.974;2024-03-08T02:57:54;88148.31;;;-145.17;61.56
32759;BME280;19125;52.360;9.974;2024-03-08T03:00:20;88124.47;;;-145.17;61.68
32759;BME280;19125;52.360;9.974;2024-03-08T03:02:46;88128.44;;;-145.17;61.54
32759;BME280;19125;52.360;9.974;2024-03-08T03:05:12;88120.50;;;-145.17;61.74
32759;BME280;19125;52.360;9.974;2024-03-08T03:07:38;88144.34;;;-145.17;61.52
32759;BME280;19125;52.360;9.974;2024-03-08T03:10:03;88120.50;;;-145.17;61.76
32759;BME280;19125;52.360;9.974;2024-03-08T03:12:30;88150.28;;;-145.17;61.44
32759;BME280;19125;52.360;9.974;2024-03-08T03:14:59;88152.28;;;-145.17;61.63
32759;BME280;19125;52.360;9.974;2024-03-08T03:20:46;88152.28;;;-145.17;61.76
32759;BME280;19125;52.360;9.974;2024-03-08T03:23:11;88156.25;;;-145.17;61.65
32759;BME280;19125;52.360;9.974;2024-03-08T03:25:39;88132.41;;;-145.17;61.61
32759;BME280;19125;52.360;9.974;2024-03-08T03:28:06;88156.25;;;-145.17;61.86
32759;BME280;19125;52.360;9.974;2024-03-08T03:30:32;88162.19;;;-145.17;61.81
32759;BME280;19125;52.360;9.974;2024-03-08T03:32:59;88160.22;;;-145.17;61.74
32759;BME280;19125;52.360;9.974;2024-03-08T03:35:26;88168.16;;;-145.17;61.85
32759;BME280;19125;52.360;9.974;2024-03-08T03:37:52;88211.84;;;-145.17;61.96
32759;BME280;19125;52.360;9.974;2024-03-08T03:40:28;88215.81;;;-145.17;62.04
32759;BME280;19125;52.360;9.974;2024-03-08T03:42:53;88188.00;;;-145.17;62.11
32759;BME280;19125;52.360;9.974;2024-03-08T03:45:19;88213.81;;;-145.17;62.33
32759;BME280;19125;52.360;9.974;2024-03-08T03:47:45;88241.63;;;-145.17;62.29
32759;BME280;19125;52.360;9.974;2024-03-08T03:50:11;88253.53;;;-145.17;62.49
32759;BME280;19125;52.360;9.974;2024-03-08T03:52:36;88235.66;;;-145.17;62.12
32759;BME280;19125;52.360;9.974;2024-03-08T03:55:01;88271.41;;;-145.17;62.45
32759;BME280;19125;52.360;9.974;2024-03-08T03:57:27;88263.47;;;-145.17;62.55
32759;BME280;19125;52.360;9.974;2024-03-08T03:59:52;88257.50;;;-145.17;62.69
32759;BME280;19125;52.360;9.974;2024-03-08T04:02:17;88313.09;;;-145.17;62.55
32759;BME280;19125;52.360;9.974;2024-03-08T04:04:45;88344.84;;;-145.17;62.67
32759;BME280;19125;52.360;9.974;2024-03-08T04:07:10;88330.97;;;-145.17;62.94
32759;BME280;19125;52.360;9.974;2024-03-08T04:09:36;88366.69;;;-145.17;62.84
32759;BME280;19125;52.360;9.974;2024-03-08T04:12:01;88374.63;;;-145.17;63.08
32759;BME280;19125;52.360;9.974;2024-03-08T04:14:27;88374.63;;;-145.17;63.23
32759;BME280;19125;52.360;9.974;2024-03-08T04:16:52;88416.34;;;-145.17;62.90
32759;BME280;19125;52.360;9.974;2024-03-08T04:19:18;88386.56;;;-145.17;63.29
32759;BME280;19125;52.360;9.974;2024-03-08T04:21:44;88426.25;;;-145.17;63.34
32759;BME280;19125;52.360;9.974;2024-03-08T04:24:09;88432.22;;;-145.17;63.51
32759;BME280;19125;52.360;9.974;2024-03-08T04:26:35;88448.09;;;-145.17;63.14
32759;BME280;19125;52.360;9.974;2024-03-08T04:29:01;88432.22;;;-145.17;63.37
32759;BME280;19125;52.360;9.974;2024-03-08T04:31:26;88422.28;;;-145.17;63.25
32759;BME280;19125;52.360;9.974;2024-03-08T04:33:52;88426.25;;;-145.17;63.20
32759;BME280;19125;52.360;9.974;2024-03-08T04:36:17;88422.28;;;-145.17;63.43
32759;BME280;19125;52.360;9.974;2024-03-08T04:38:42;88418.31;;;-145.17;63.26
32759;BME280;19125;52.360;9.974;2024-03-08T04:41:08;88450.09;;;-145.17;63.28
32759;BME280;19125;52.360;9.974;2024-03-08T04:43:34;88442.16;;;-145.17;63.75
32759;BME280;19125;52.360;9.974;2024-03-08T04:45:59;88414.34;;;-145.17;63.11
32759;BME280;19125;52.360;9.974;2024-03-08T04:48:25;88473.91;;;-145.17;63.42
32759;BME280;19125;52.360;9.974;2024-03-08T04:50:53;88438.19;;;-145.17;63.45
32759;BME280;19125;52.360;9.974;2024-03-08T04:53:19;88448.09;;;-145.17;63.28
32759;BME280;19125;52.360;9.974;2024-03-08T04:55:44;88422.28;;;-145.17;63.21
32759;BME280;19125;52.360;9.974;2024-03-08T04:58:09;88390.53;;;-145.17;63.23
32759;BME280;19125;52.360;9.974;2024-03-08T05:00:35;88398.47;;;-145.17;63.41
32759;BME280;19125;52.360;9.974;2024-03-08T05:03:00;88410.38;;;-145.17;63.28
32759;BME280;19125;52.360;9.974;2024-03-08T05:05:26;88450.09;;;-145.17;63.34
32759;BME280;19125;52.360;9.974;2024-03-08T05:07:53;88434.19;;;-145.17;63.49
32759;BME280;19125;52.360;9.974;2024-03-08T05:10:19;88418.31;;;-145.17;63.55
32759;BME280;19125;52.360;9.974;2024-03-08T05:12:44;88418.31;;;-145.17;63.30
32759;BME280;19125;52.360;9.974;2024-03-08T05:15:09;88424.28;;;-145.17;63.44
32759;BME280;19125;52.360;9.974;2024-03-08T05:17:35;88446.13;;;-145.17;63.47
32759;BME280;19125;52.360;9.974;2024-03-08T05:20:00;88460.00;;;-145.17;63.21
32759;BME280;19125;52.360;9.974;2024-03-08T05:22:26;88456.03;;;-145.17;63.39
32759;BME280;19125;52.360;9.974;2024-03-08T05:24:51;88442.16;;;-145.17;63.51
32759;BME280;19125;52.360;9.974;2024-03-08T05:27:17;88467.97;;;-145.17;63.52
32759;BME280;19125;52.360;9.974;2024-03-08T05:29:42;88454.06;;;-145.17;63.78
32759;BME280;19125;52.360;9.974;2024-03-08T05:32:07;88454.06;;;-145.17;63.84
32759;BME280;19125;52.360;9.974;2024-03-08T05:34:33;88477.88;;;-145.17;63.53
32759;BME280;19125;52.360;9.974;2024-03-08T05:36:58;88467.97;;;-145.17;63.82
32759;BME280;19125;52.360;9.974;2024-03-08T05:39:25;88479.88;;;-145.17;63.65
32759;BME280;19125;52.360;9.974;2024-03-08T05:41:50;88501.72;;;-145.17;63.91
32759;BME280;19125;52.360;9.974;2024-03-08T05:44:16;88469.94;;;-145.17;63.71
32759;BME280;19125;52.360;9.974;2024-03-08T05:46:42;88487.81;;;-145.17;63.81
32759;BME280;19125;52.360;9.974;2024-03-08T05:49:08;88489.78;;;-145.17;63.94
32759;BME280;19125;52.360;9.974;2024-03-08T05:51:36;88529.50;;;-145.17;63.94
32759;BME280;19125;52.360;9.974;2024-03-08T05:54:05;88493.78;;;-145.17;63.78
32759;BME280;19125;52.360;9.974;2024-03-08T05:56:31;88525.53;;;-145.17;64.04
32759;BME280;19125;52.360;9.974;2024-03-08T05:58:57;88529.50;;;-145.17;64.17
32759;BME280;19125;52.360;9.974;2024-03-08T06:01:24;88519.59;;;-145.17;64.06
32759;BME280;19125;52.360;9.974;2024-03-08T06:03:49;88533.47;;;-145.17;63.88
32759;BME280;19125;52.360;9.974;2024-03-08T06:06:15;88569.22;;;-145.17;64.07
32759;BME280;19125;52.360;9.974;2024-03-08T06:08:41;88533.47;;;-145.17;63.78
32759;BME280;19125;52.360;9.974;2024-03-08T06:11:08;88543.41;;;-145.17;64.01
32759;BME280;19125;52.360;9.974;2024-03-08T06:13:34;88537.44;;;-145.17;64.25
32759;BME280;19125;52.360;9.974;2024-03-08T06:16:00;88529.50;;;-145.17;64.19
32759;BME280;19125;52.360;9.974;2024-03-08T06:18:26;88541.41;;;-145.17;64.08
32759;BME280;19125;52.360;9.974;2024-03-08T06:20:51;88525.53;;;-145.17;64.06
32759;BME280;19125;52.360;9.974;2024-03-08T06:23:17;88545.41;;;-145.17;63.94
32759;BME280;19125;52.360;9.974;2024-03-08T06:25:45;88513.63;;;-145.17;63.87
32759;BME280;19125;52.360;9.974;2024-03-08T06:28:11;88479.88;;;-145.17;63.79
32759;BME280;19125;52.360;9.974;2024-03-08T06:30:36;88485.81;;;-145.17;63.71
32759;BME280;19125;52.360;9.974;2024-03-08T06:33:02;88462.00;;;-145.17;63.76
32759;BME280;19125;52.360;9.974;2024-03-08T06:35:27;88436.19;;;-145.17;63.59
32759;BME280;19125;52.360;9.974;2024-03-08T06:37:53;88362.72;;;-145.17;63.48
32759;BME280;19125;52.360;9.974;2024-03-08T06:40:18;88380.59;;;-145.17;63.25
32759;BME280;19125;52.360;9.974;2024-03-08T06:42:43;88364.72;;;-145.17;63.24
32759;BME280;19125;52.360;9.974;2024-03-08T06:45:09;88382.59;;;-145.17;63.54
32759;BME280;19125;52.360;9.974;2024-03-08T06:47:36;88360.75;;;-145.17;63.28
32759;BME280;19125;52.360;9.974;2024-03-08T06:50:02;88332.94;;;-145.17;63.20
32759;BME280;19125;52.360;9.974;2024-03-08T06:52:29;88299.19;;;-145.17;62.97
32759;BME280;19125;52.360;9.974;2024-03-08T06:54:54;88362.72;;;-145.17;62.59
32759;BME280;19125;52.360;9.974;2024-03-08T06:57:19;88307.13;;;-145.17;62.69
32759;BME280;19125;52.360;9.974;2024-03-08T06:59:48;88328.97;;;-145.17;62.35
32759;BME280;19125;52.360;9.974;2024-03-08T07:02:14;88279.34;;;-145.17;62.34
32759;BME280;19125;52.360;9.974;2024-03-08T07:04:39;88229.72;;;-145.17;62.16
32759;BME280;19125;52.360;9.974;2024-03-08T07:07:05;88180.06;;;-145.17;61.79
32759;BME280;19125;52.360;9.974;2024-03-08T07:09:33;88160.22;;;-145.17;61.74
32759;BME280;19125;52.360;9.974;2024-03-08T07:11:58;88134.41;;;-145.17;61.95
32759;BME280;19125;52.360;9.974;2024-03-08T07:14:24;88112.56;;;-145.17;61.53
32759;BME280;19125;52.360;9.974;2024-03-08T07:16:50;88102.63;;;-145.17;61.67
32759;BME280;19125;52.360;9.974;2024-03-08T07:19:16;88062.94;;;-145.17;60.98
32759;BME280;19125;52.360;9.974;2024-03-08T07:21:45;88013.31;;;-145.17;60.61
32759;BME280;19125;52.360;9.974;2024-03-08T07:24:12;88033.16;;;-145.17;60.96
32759;BME280;19125;52.360;9.974;2024-03-08T07:27:04;87963.66;;;-145.17;60.32
32759;BME280;19125;52.360;9.974;2024-03-08T07:29:32;87896.16;;;-145.17;59.72
32759;BME280;19125;52.360;9.974;2024-03-08T07:31:59;87886.25;;;-145.17;59.90
32759;BME280;19125;52.360;9.974;2024-03-08T07:34:46;87848.53;;;-145.17;59.52
32759;BME280;19125;52.360;9.974;2024-03-08T07:37:12;87804.84;;;-145.17;59.25
32759;BME280;19125;52.360;9.974;2024-03-08T07:39:38;87785.00;;;-145.17;59.09
32759;BME280;19125;52.360;9.974;2024-03-08T07:42:04;87737.34;;;-145.17;59.13
32759;BME280;19125;52.360;9.974;2024-03-08T07:44:30;87725.44;;;-145.17;58.47
32759;BME280;19125;52.360;9.974;2024-03-08T07:46:56;87705.59;;;-145.17;58.34
32759;BME280;19125;52.360;9.974;2024-03-08T07:49:22;87671.84;;;-145.17;58.48
32759;BME280;19125;52.360;9.974;2024-03-08T07:51:47;87659.94;;;-145.17;57.97
32759;BME280;19125;52.360;9.974;2024-03-08T07:54:14;87655.97;;;-145.17;57.77
32759;BME280;19125;52.360;9.974;2024-03-08T07:56:39;87612.28;;;-145.17;57.32
32759;BME280;19125;52.360;9.974;2024-03-08T07:59:05;87596.41;;;-145.17;57.36
32759;BME280;19125;52.360;9.974;2024-03-08T08:01:30;87544.81;;;-145.17;57.10
32759;BME280;19125;52.360;9.974;2024-03-08T08:03:56;87536.88;;;-145.17;56.78
32759;BME280;19125;52.360;9.974;2024-03-08T08:06:22;87542.81;;;-145.17;56.35
32759;BME280;19125;52.360;9.974;2024-03-08T08:08:47;87501.13;;;-145.17;56.56
32759;BME280;19125;52.360;9.974;2024-03-08T08:11:12;87501.13;;;-145.17;56.35
32759;BME280;19125;52.360;9.974;2024-03-08T08:13:38;87483.28;;;-145.17;55.79
32759;BME280;19125;52.360;9.974;2024-03-08T08:16:04;87427.69;;;-145.17;55.84
32759;BME280;19125;52.360;9.974;2024-03-08T08:18:31;87427.69;;;-145.17;55.84
32759;BME280;19125;52.360;9.974;2024-03-08T08:20:58;87417.75;;;-145.17;55.48
32759;BME280;19125;52.360;9.974;2024-03-08T08:23:25;87403.88;;;-145.17;55.01
32759;BME280;19125;52.360;9.974;2024-03-08T08:25:50;87397.91;;;-145.17;55.51
32759;BME280;19125;52.360;9.974;2024-03-08T08:28:16;87429.66;;;-145.17;55.09
32759;BME280;19125;52.360;9.974;2024-03-08T08:30:45;87366.16;;;-145.17;54.95
32759;BME280;19125;52.360;9.974;2024-03-08T08:33:11;87340.34;;;-145.17;54.50
32759;BME280;19125;52.360;9.974;2024-03-08T08:35:37;87370.13;;;-145.17;54.25
32759;BME280;19125;52.360;9.974;2024-03-08T08:38:06;87346.31;;;-145.17;53.82
32759;BME280;19125;52.360;9.974;2024-03-08T08:40:33;87304.63;;;-145.17;54.12
32759;BME280;19125;52.360;9.974;2024-03-08T08:42:58;87324.47;;;-145.17;53.45
32759;BME280;19125;52.360;9.974;2024-03-08T08:45:25;87298.66;;;-145.17;53.40
32759;BME280;19125;52.360;9.974;2024-03-08T08:47:51;87278.81;;;-145.17;53.17
32759;BME280;19125;52.360;9.974;2024-03-08T08:50:18;87251.03;;;-145.17;52.77
32759;BME280;19125;52.360;9.974;2024-03-08T08:52:49;87243.09;;;-145.17;52.29
32759;BME280;19125;52.360;9.974;2024-03-08T08:55:15;87227.22;;;-145.17;52.17
32759;BME280;19125;52.360;9.974;2024-03-08T08:57:41;87241.09;;;-145.17;52.02
32759;BME280;19125;52.360;9.974;2024-03-08T09:00:07;87219.28;;;-145.17;51.98
32759;BME280;19125;52.360;9.974;2024-03-08T09:02:39;87199.41;;;-145.17;51.51
32759;BME280;19125;52.360;9.974;2024-03-08T09:05:06;87185.53;;;-145.17;51.56
32759;BME280;19125;52.360;9.974;2024-03-08T09:07:33;87219.28;;;-145.17;51.09
32759;BME280;19125;52.360;9.974;2024-03-08T09:09:59;87195.44;;;-145.17;51.36
32759;BME280;19125;52.360;9.974;2024-03-08T09:12:24;87157.75;;;-145.17;50.96
32759;BME280;19125;52.360;9.974;2024-03-08T09:14:50;87199.41;;;-145.17;50.59
32759;BME280;19125;52.360;9.974;2024-03-08T09:17:15;87143.84;;;-145.17;50.42
32759;BME280;19125;52.360;9.974;2024-03-08T09:19:45;87219.28;;;-145.17;50.18
32759;BME280;19125;52.360;9.974;2024-03-08T09:22:10;87131.94;;;-145.17;50.10
32759;BME280;19125;52.360;9.974;2024-03-08T09:24:36;87135.91;;;-145.17;49.89
32759;BME280;19125;52.360;9.974;2024-03-08T09:27:01;87112.09;;;-145.17;49.42
32759;BME280;19125;52.360;9.974;2024-03-08T09:29:26;87098.19;;;-145.17;49.17
32759;BME280;19125;52.360;9.974;2024-03-08T09:31:52;87088.28;;;-145.17;49.20
32759;BME280;19125;52.360;9.974;2024-03-08T09:34:17;87048.56;;;-145.17;49.00
32759;BME280;19125;52.360;9.974;2024-03-08T09:36:44;87042.63;;;-145.17;48.69
32759;BME280;19125;52.360;9.974;2024-03-08T09:39:09;87016.81;;;-145.17;48.39
32759;BME280;19125;52.360;9.974;2024-03-08T09:41:34;87064.44;;;-145.17;48.35
32759;BME280;19125;52.360;9.974;2024-03-08T09:44:00;87108.13;;;-145.17;48.00
32759;BME280;19125;52.360;9.974;2024-03-08T09:46:26;87050.56;;;-145.17;48.03
32759;BME280;19125;52.360;9.974;2024-03-08T09:48:54;87032.69;;;-145.17;47.42
32759;BME280;19125;52.360;9.974;2024-03-08T09:51:28;87020.78;;;-145.17;47.23
32759;BME280;19125;52.360;9.974;2024-03-08T09:53:54;87020.78;;;-145.17;47.34
32759;BME280;19125;52.360;9.974;2024-03-08T09:56:21;87032.69;;;-145.17;47.20
32759;BME280;19125;52.360;9.974;2024-03-08T09:58:48;87072.38;;;-145.17;46.78
32759;BME280;19125;52.360;9.974;2024-03-08T10:01:43;87028.72;;;-145.17;47.01
32759;BME280;19125;52.360;9.974;2024-03-08T10:04:09;87016.81;;;-145.17;46.61
32759;BME280;19125;52.360;9.974;2024-03-08T10:06:35;86983.06;;;-145.17;46.54
32759;BME280;19125;52.360;9.974;2024-03-08T10:09:01;87000.94;;;-145.17;46.21
32759;BME280;19125;52.360;9.974;2024-03-08T10:11:26;86989.03;;;-145.17;46.05
32759;BME280;19125;52.360;9.974;2024-03-08T10:13:52;86989.03;;;-145.17;46.17
32759;BME280;19125;52.360;9.974;2024-03-08T10:16:17;86993.00;;;-145.17;45.75
32759;BME280;19125;52.360;9.974;2024-03-08T10:18:45;86979.09;;;-145.17;45.75
32759;BME280;19125;52.360;9.974;2024-03-08T10:21:11;86979.09;;;-145.17;46.00
32759;BME280;19125;52.360;9.974;2024-03-08T10:23:37;86971.16;;;-145.17;45.99
32759;BME280;19125;52.360;9.974;2024-03-08T10:26:11;86945.38;;;-145.17;45.77
32759;BME280;19125;52.360;9.974;2024-03-08T10:28:40;86899.72;;;-145.17;45.47
32759;BME280;19125;52.360;9.974;2024-03-08T10:31:05;86927.50;;;-145.17;45.34
32759;BME280;19125;52.360;9.974;2024-03-08T10:33:31;86947.34;;;-145.17;45.04
32759;BME280;19125;52.360;9.974;2024-03-08T10:35:56;86957.28;;;-145.17;44.65
32759;BME280;19125;52.360;9.974;2024-03-08T10:38:22;86953.31;;;-145.17;44.85
32759;BME280;19125;52.360;9.974;2024-03-08T10:40:48;86929.47;;;-145.17;45.02
32759;BME280;19125;52.360;9.974;2024-03-08T10:43:28;86943.38;;;-145.17;45.09
32759;BME280;19125;52.360;9.974;2024-03-08T10:48:55;86927.50;;;-145.17;44.47
32759;BME280;19125;52.360;9.974;2024-03-08T10:51:23;86973.16;;;-145.17;44.99
32759;BME280;19125;52.360;9.974;2024-03-08T10:53:50;86933.44;;;-145.17;44.37
32759;BME280;19125;52.360;9.974;2024-03-08T10:56:17;86925.50;;;-145.17;44.37
32759;BME280;19125;52.360;9.974;2024-03-08T10:58:42;86909.63;;;-145.17;43.97
32759;BME280;19125;52.360;9.974;2024-03-08T11:01:09;86901.69;;;-145.17;44.54
32759;BME280;19125;52.360;9.974;2024-03-08T11:06:05;86919.56;;;-145.17;44.31
32759;BME280;19125;52.360;9.974;2024-03-08T11:08:31;86877.88;;;-145.17;43.79
32759;BME280;19125;52.360;9.974;2024-03-08T11:10:57;86826.28;;;-145.17;43.96
32759;BME280;19125;52.360;9.974;2024-03-08T11:15:59;86848.13;;;-145.17;43.60
32759;BME280;19125;52.360;9.974;2024-03-08T11:18:26;86856.06;;;-145.17;43.67
32759;BME280;19125;52.360;9.974;2024-03-08T11:20:54;86850.09;;;-145.17;43.83
32759;BME280;19125;52.360;9.974;2024-03-08T11:23:22;86862.00;;;-145.17;43.64
32759;BME280;19125;52.360;9.974;2024-03-08T11:25:48;86846.13;;;-145.17;43.75
32759;BME280;19125;52.360;9.974;2024-03-08T11:28:23;86814.38;;;-145.17;43.71
32759;BME280;19125;52.360;9.974;2024-03-08T11:33:24;86838.19;;;-145.17;42.92
32759;BME280;19125;52.360;9.974;2024-03-08T11:35:50;86836.19;;;-145.17;42.76
32759;BME280;19125;52.360;9.974;2024-03-08T11:38:16;86788.56;;;-145.17;42.86
32759;BME280;19125;52.360;9.974;2024-03-08T11:40:42;86834.22;;;-145.17;42.55
32759;BME280;19125;52.360;9.974;2024-03-08T11:43:08;86812.38;;;-145.17;42.49
32759;BME280;19125;52.360;9.974;2024-03-08T11:45:36;86820.31;;;-145.17;42.42
32759;BME280;19125;52.360;9.974;2024-03-08T11:48:05;86808.41;;;-145.17;42.55
32759;BME280;19125;52.360;9.974;2024-03-08T11:50:30;86808.41;;;-145.17;43.23
32759;BME280;19125;52.360;9.974;2024-03-08T11:53:02;86780.63;;;-145.17;42.38
32759;BME280;19125;52.360;9.974;2024-03-08T11:55:28;86778.66;;;-145.17;42.29
32759;BME280;19125;52.360;9.974;2024-03-08T11:58:02;86860.03;;;-145.17;42.73
32759;BME280;19125;52.360;9.974;2024-03-08T12:00:27;86782.63;;;-145.17;41.96
32759;BME280;19125;52.360;9.974;2024-03-08T12:03:06;86768.72;;;-145.17;42.35
32759;BME280;19125;52.360;9.974;2024-03-08T12:05:32;86752.84;;;-145.17;41.62
32759;BME280;19125;52.360;9.974;2024-03-08T12:08:04;86778.66;;;-145.17;42.35
32759;BME280;19125;52.360;9.974;2024-03-08T12:10:33;86796.50;;;-145.17;41.57
32759;BME280;19125;52.360;9.974;2024-03-08T12:13:00;86742.91;;;-145.17;41.48
32759;BME280;19125;52.360;9.974;2024-03-08T12:15:25;86736.97;;;-145.17;41.36
32759;BME280;19125;52.360;9.974;2024-03-08T12:17:53;86770.72;;;-145.17;41.35
32759;BME280;19125;52.360;9.974;2024-03-08T12:20:22;86762.78;;;-145.17;41.34
32759;BME280;19125;52.360;9.974;2024-03-08T12:22:48;86738.94;;;-145.17;41.58
32759;BME280;19125;52.360;9.974;2024-03-08T12:25:14;86770.72;;;-145.17;41.77
32759;BME280;19125;52.360;9.974;2024-03-08T12:27:42;86723.06;;;-145.17;41.47
32759;BME280;19125;52.360;9.974;2024-03-08T12:32:58;86746.91;;;-145.17;41.51
32759;BME280;19125;52.360;9.974;2024-03-08T12:35:29;86750.88;;;-145.17;41.43
32759;BME280;19125;52.360;9.974;2024-03-08T12:37:59;86713.16;;;-145.17;42.10
32759;BME280;19125;52.360;9.974;2024-03-08T12:40:31;86770.72;;;-145.17;41.62
32759;BME280;19125;52.360;9.974;2024-03-08T12:42:58;86736.97;;;-145.17;41.39
32759;BME280;19125;52.360;9.974;2024-03-08T12:45:24;86707.19;;;-145.17;41.04
32759;BME280;19125;52.360;9.974;2024-03-08T12:47:53;86736.97;;;-145.17;41.22
32759;BME280;19125;52.360;9.974;2024-03-08T12:50:21;86721.09;;;-145.17;40.80
32759;BME280;19125;52.360;9.974;2024-03-08T12:52:46;86734.97;;;-145.17;40.92